Time;durP1;ratioP1;P1;durP2;ratioP2;P2;SDS_P1;SDS_P2;PMS_P1;PMS_P2;Temp;Humidity;BMP_temperature;BMP_pressure;BME280_temperature;BME280_humidity;BME280_pressure;Samples;Min_cycle;Max_cycle;Signal;HPM_P1;HPM_P2
2022/10/29 00:00:41;;;;;;;13.85;1.35;;;12.20;99.90;;;;;;5035066;28;20021;-77
2022/10/29 00:03:07;;;;;;;12.85;1.35;;;12.20;99.90;;;;;;5034651;28;20038;-77
2022/10/29 00:05:33;;;;;;;9.70;1.65;;;12.20;99.90;;;;;;5034799;28;20534;-77
2022/10/29 00:07:59;;;;;;;11.55;1.35;;;12.20;99.90;;;;;;5034502;28;20022;-77
2022/10/29 00:10:25;;;;;;;10.88;1.15;;;12.10;99.90;;;;;;5034554;28;20028;-77
2022/10/29 00:12:51;;;;;;;9.88;1.45;;;12.10;99.90;;;;;;5034464;28;20476;-77
2022/10/29 00:15:16;;;;;;;6.70;1.45;;;12.00;99.90;;;;;;5035100;28;20075;-77
2022/10/29 00:17:42;;;;;;;14.50;2.22;;;12.00;99.90;;;;;;5034529;28;20034;-77
2022/10/29 00:20:08;;;;;;;11.57;1.90;;;11.90;99.90;;;;;;5034621;28;20496;-77
2022/10/29 00:22:33;;;;;;;12.45;1.40;;;11.90;99.90;;;;;;5034172;28;20029;-77
2022/10/29 00:24:59;;;;;;;17.33;2.17;;;12.00;99.90;;;;;;5034785;28;20412;-77
2022/10/29 00:27:25;;;;;;;12.80;2.33;;;12.00;99.90;;;;;;5034458;28;20061;-77
2022/10/29 00:29:50;;;;;;;12.55;2.05;;;11.90;99.90;;;;;;5016930;28;20022;-77
2022/10/29 00:32:16;;;;;;;14.90;1.55;;;11.90;99.90;;;;;;5034492;28;20105;-77
2022/10/29 00:34:42;;;;;;;9.57;1.73;;;11.90;99.90;;;;;;5034233;28;20530;-77
2022/10/29 00:37:07;;;;;;;11.23;1.30;;;11.90;99.90;;;;;;5033960;28;20025;-77
2022/10/29 00:39:33;;;;;;;12.65;1.38;;;11.90;99.90;;;;;;5033751;28;20472;-77
2022/10/29 00:42:00;;;;;;;12.77;1.80;;;11.80;99.90;;;;;;5016207;28;20060;-77
2022/10/29 00:44:37;;;;;;;15.77;1.55;;;11.70;99.90;;;;;;5033761;28;20053;-77
2022/10/29 00:47:17;;;;;;;14.85;1.90;;;11.70;99.90;;;;;;5033842;28;20025;-77
2022/10/29 00:49:49;;;;;;;12.77;1.30;;;11.70;99.90;;;;;;5033661;28;20492;-77
2022/10/29 00:52:20;;;;;;;15.73;2.50;;;11.70;99.90;;;;;;5033691;28;20028;-77
2022/10/29 00:54:47;;;;;;;14.50;1.88;;;11.60;99.90;;;;;;5033837;28;20037;-77
2022/10/29 00:57:25;;;;;;;10.55;1.90;;;12.70;99.90;;;;;;5033704;28;20036;-77
2022/10/29 00:59:51;;;;;;;16.20;1.85;;;11.70;99.90;;;;;;5033759;28;20037;-77
2022/10/29 01:02:17;;;;;;;10.88;1.60;;;11.70;99.90;;;;;;5033296;28;20021;-77
2022/10/29 01:04:43;;;;;;;4.13;0.80;;;11.80;99.90;;;;;;5033699;28;20032;-77
2022/10/29 01:07:10;;;;;;;7.00;1.33;;;11.50;99.90;;;;;;5034005;28;20076;-77
2022/10/29 01:09:35;;;;;;;8.52;2.45;;;11.50;99.90;;;;;;5033532;28;20017;-77
2022/10/29 01:12:32;;;;;;;12.15;1.80;;;11.50;99.90;;;;;;5015823;28;20384;-77
2022/10/29 01:15:07;;;;;;;10.32;1.88;;;11.40;99.90;;;;;;5033467;28;20018;-77
2022/10/29 01:17:44;;;;;;;10.65;2.47;;;11.50;99.90;;;;;;5033510;28;20558;-77
2022/10/29 01:23:04;;;;;;;7.40;0.77;;;11.60;99.90;;;;;;5528818;22;20088;-76
2022/10/29 01:25:56;;;;;;;11.68;1.77;;;11.50;99.90;;;;;;5014086;28;20030;-77
2022/10/29 01:28:33;;;;;;;9.50;1.98;;;11.50;99.90;;;;;;5000976;28;20038;-76
2022/10/29 01:31:15;;;;;;;15.02;3.45;;;11.50;99.90;;;;;;5020215;28;20025;-76
2022/10/29 01:33:52;;;;;;;13.23;2.05;;;11.40;99.90;;;;;;5019978;28;20029;-77
2022/10/29 01:36:26;;;;;;;5.75;1.52;;;11.40;99.90;;;;;;5020678;28;20026;-76
2022/10/29 01:38:52;;;;;;;7.80;1.83;;;11.30;99.90;;;;;;5002216;28;20057;-76
2022/10/29 01:41:26;;;;;;;6.97;1.55;;;11.30;99.90;;;;;;5002401;28;20026;-76
2022/10/29 01:44:04;;;;;;;8.95;1.65;;;11.20;99.90;;;;;;5002029;28;20034;-76
2022/10/29 01:46:44;;;;;;;5.20;1.20;;;11.20;99.90;;;;;;5019911;28;20022;-76
2022/10/29 01:49:22;;;;;;;7.38;1.02;;;11.20;99.90;;;;;;5020048;28;20026;-76
2022/10/29 01:51:49;;;;;;;4.27;0.60;;;11.10;99.90;;;;;;5020848;28;20025;-76
2022/10/29 01:54:15;;;;;;;9.52;1.50;;;11.00;99.90;;;;;;5019711;28;20411;-76
2022/10/29 01:56:40;;;;;;;9.07;1.70;;;11.00;99.90;;;;;;5019844;28;20018;-76
2022/10/29 01:59:12;;;;;;;10.75;2.40;;;11.00;99.90;;;;;;5019739;28;20034;-76
2022/10/29 02:02:08;;;;;;;18.85;3.90;;;11.10;99.90;;;;;;5019731;28;20052;-76
2022/10/29 02:04:45;;;;;;;22.35;6.30;;;11.20;99.90;;;;;;5002086;28;20025;-76
2022/10/29 02:07:19;;;;;;;19.70;4.93;;;11.40;99.90;;;;;;5019678;28;20022;-76
2022/10/29 02:10:06;;;;;;;16.88;4.20;;;11.40;99.90;;;;;;5019519;28;20053;-76
2022/10/29 02:12:47;;;;;;;19.20;4.10;;;11.40;99.90;;;;;;5020031;28;20116;-76
2022/10/29 02:15:48;;;;;;;16.60;3.70;;;11.50;99.90;;;;;;5019656;28;20034;-76
2022/10/29 02:18:14;;;;;;;38.30;4.25;;;11.50;99.90;;;;;;5001844;28;20065;-76
2022/10/29 02:20:41;;;;;;;49.70;4.75;;;11.50;99.90;;;;;;5019363;28;20033;-76
2022/10/29 02:23:06;;;;;;;26.27;3.55;;;11.50;99.90;;;;;;5001351;28;20033;-76
2022/10/29 02:25:32;;;;;;;38.08;5.00;;;11.50;99.90;;;;;;5019225;28;20503;-76
2022/10/29 02:27:58;;;;;;;27.98;4.82;;;11.50;99.90;;;;;;5019380;28;20104;-76
2022/10/29 02:30:24;;;;;;;113.53;8.63;;;11.50;99.90;;;;;;5001678;28;20025;-76
2022/10/29 02:32:49;;;;;;;110.05;7.68;;;11.50;99.90;;;;;;5019516;28;20418;-76
2022/10/29 02:35:15;;;;;;;115.95;8.35;;;11.60;99.90;;;;;;5019312;28;20040;-77
2022/10/29 02:37:40;;;;;;;100.93;8.73;;;11.60;99.90;;;;;;5001641;28;20026;-77
2022/10/29 02:40:06;;;;;;;23.80;4.97;;;11.70;99.90;;;;;;5000579;28;20033;-76
2022/10/29 02:42:32;;;;;;;94.57;5.85;;;11.70;99.90;;;;;;5015190;28;20366;-76
2022/10/29 02:44:58;;;;;;;67.78;6.35;;;11.70;99.90;;;;;;5016165;28;20084;-76
2022/10/29 02:47:23;;;;;;;94.85;6.25;;;11.80;99.90;;;;;;5016122;28;20026;-76
2022/10/29 02:49:49;;;;;;;95.30;7.53;;;11.80;99.90;;;;;;5016036;28;20053;-77
2022/10/29 02:52:14;;;;;;;65.68;6.18;;;11.90;99.90;;;;;;5015897;28;20022;-76
2022/10/29 02:54:40;;;;;;;81.93;7.05;;;11.90;99.90;;;;;;4999042;28;20018;-76
2022/10/29 02:57:06;;;;;;;63.45;7.82;;;11.90;99.90;;;;;;5015777;28;20022;-76
2022/10/29 02:59:32;;;;;;;85.55;6.65;;;11.90;99.90;;;;;;5015607;28;20022;-76
2022/10/29 03:01:58;;;;;;;91.88;5.85;;;12.00;99.90;;;;;;5016271;28;20039;-76
2022/10/29 03:04:24;;;;;;;50.28;6.30;;;12.00;99.90;;;;;;5015447;28;20030;-76
2022/10/29 03:06:49;;;;;;;55.53;5.20;;;12.00;99.90;;;;;;5015503;28;20076;-76
2022/10/29 03:09:15;;;;;;;65.07;6.28;;;12.00;99.90;;;;;;5016558;28;20097;-77
2022/10/29 03:11:40;;;;;;;60.30;5.97;;;12.00;99.90;;;;;;4997818;28;20380;-76
2022/10/29 03:14:06;;;;;;;58.22;6.25;;;12.00;99.90;;;;;;5017564;28;20395;-78
2022/10/29 03:16:31;;;;;;;77.68;6.10;;;12.00;99.90;;;;;;4998598;28;20024;-76
2022/10/29 03:18:57;;;;;;;25.65;5.13;;;12.00;99.90;;;;;;5015460;28;20048;-76
2022/10/29 03:21:23;;;;;;;51.97;4.63;;;;;;;;;;4997761;28;20034;-76
2022/10/29 03:23:49;;;;;;;25.88;5.60;;;;;;;;;;5014869;28;20095;-76
2022/10/29 03:26:14;;;;;;;61.58;6.10;;;12.00;99.90;;;;;;4997752;28;20487;-76
2022/10/29 03:28:40;;;;;;;45.67;6.25;;;12.00;99.90;;;;;;5014967;28;20127;-76
2022/10/29 03:31:06;;;;;;;28.90;5.45;;;12.10;99.90;;;;;;5015564;28;20060;-76
2022/10/29 03:33:33;;;;;;;18.95;4.90;;;11.80;99.90;;;;;;4997520;28;20030;-76
2022/10/29 03:36:00;;;;;;;42.58;5.68;;;12.00;99.90;;;;;;4997281;28;20029;-76
2022/10/29 03:38:26;;;;;;;19.27;4.90;;;12.10;99.90;;;;;;4997238;28;20116;-76
2022/10/29 03:40:52;;;;;;;42.67;4.90;;;12.10;99.90;;;;;;5015434;28;20036;-76
2022/10/29 03:43:18;;;;;;;15.38;4.45;;;12.10;99.90;;;;;;4997294;28;20435;-76
2022/10/29 03:45:52;;;;;;;50.88;5.00;;;12.10;99.90;;;;;;5014704;28;20022;-76
2022/10/29 03:48:18;;;;;;;20.92;4.65;;;12.10;99.90;;;;;;5014928;28;20054;-76
2022/10/29 03:50:43;;;;;;;36.08;6.07;;;12.10;99.90;;;;;;5015480;28;20484;-76
2022/10/29 03:53:10;;;;;;;8.18;4.22;;;12.10;99.90;;;;;;5014416;28;20084;-76
2022/10/29 03:55:35;;;;;;;11.98;4.68;;;12.00;99.90;;;;;;5017144;28;20022;-78
2022/10/29 03:58:01;;;;;;;10.50;4.25;;;12.00;99.90;;;;;;5017344;28;20026;-76
2022/10/29 04:00:26;;;;;;;12.43;4.47;;;12.00;99.90;;;;;;4997488;28;20040;-76
2022/10/29 04:02:52;;;;;;;15.95;4.55;;;12.00;99.90;;;;;;5014567;28;20113;-76
2022/10/29 04:05:18;;;;;;;11.55;4.32;;;11.90;99.90;;;;;;4997315;28;20076;-76
2022/10/29 04:07:44;;;;;;;16.58;4.88;;;11.90;99.90;;;;;;5015865;28;20385;-76
2022/10/29 04:10:09;;;;;;;26.20;5.18;;;12.00;99.90;;;;;;4998279;28;20022;-77
2022/10/29 04:12:35;;;;;;;30.50;5.03;;;12.00;99.90;;;;;;4997318;28;20069;-76
2022/10/29 04:15:00;;;;;;;13.70;4.53;;;12.00;99.90;;;;;;4997992;28;20022;-77
2022/10/29 04:17:26;;;;;;;16.15;4.57;;;12.10;99.90;;;;;;5015823;28;20054;-77
2022/10/29 04:19:51;;;;;;;17.85;4.90;;;12.10;99.90;;;;;;4997688;28;20029;-76
2022/10/29 04:22:17;;;;;;;12.98;5.82;;;12.10;99.90;;;;;;4996256;28;20857;-76
2022/10/29 04:24:43;;;;;;;14.93;5.40;;;12.20;99.90;;;;;;5014510;28;20048;-76
2022/10/29 04:27:08;;;;;;;12.90;5.00;;;12.20;99.90;;;;;;4996420;28;20025;-76
2022/10/29 04:29:34;;;;;;;13.07;5.18;;;12.10;99.90;;;;;;5014048;28;20026;-76
2022/10/29 04:31:59;;;;;;;21.77;5.05;;;12.20;99.90;;;;;;4997173;28;20030;-76
2022/10/29 04:34:25;;;;;;;13.80;6.57;;;12.20;99.90;;;;;;5014370;28;20026;-76
2022/10/29 04:36:52;;;;;;;13.77;5.45;;;12.20;99.90;;;;;;4996674;28;20117;-76
2022/10/29 04:39:18;;;;;;;14.23;6.20;;;12.30;99.90;;;;;;5014126;28;20022;-76
2022/10/29 04:41:47;;;;;;;11.13;5.70;;;12.30;99.90;;;;;;5014855;28;20437;-76
2022/10/29 04:44:12;;;;;;;;;;;12.30;99.90;;;;;;4997459;28;20036;-77
2022/10/29 04:46:38;;;;;;;14.68;5.00;;;12.30;99.90;;;;;;4997163;28;20276;-77
2022/10/29 04:49:03;;;;;;;12.63;5.97;;;12.30;99.90;;;;;;5015065;28;20029;-77
2022/10/29 04:51:29;;;;;;;13.82;5.25;;;13.70;99.90;;;;;;4997440;28;20025;-77
2022/10/29 04:53:54;;;;;;;11.32;4.90;;;12.30;99.90;;;;;;4997333;28;20030;-76
2022/10/29 04:56:20;;;;;;;11.07;5.25;;;13.80;99.90;;;;;;4996211;28;20481;-76
2022/10/29 04:58:45;;;;;;;9.68;5.30;;;12.20;99.90;;;;;;5013641;28;20024;-76
2022/10/29 05:01:11;;;;;;;13.10;5.18;;;12.20;99.90;;;;;;5013550;28;20084;-76
2022/10/29 05:03:37;;;;;;;11.70;5.35;;;12.20;99.90;;;;;;5013689;28;20037;-76
2022/10/29 05:06:04;;;;;;;10.32;4.82;;;12.20;99.90;;;;;;4996866;28;20026;-77
2022/10/29 05:08:29;;;;;;;13.77;5.80;;;12.20;99.90;;;;;;5014394;28;20029;-76
2022/10/29 05:10:55;;;;;;;16.02;5.30;;;12.10;99.90;;;;;;4996665;28;20018;-76
2022/10/29 05:13:21;;;;;;;9.93;5.28;;;12.10;99.90;;;;;;4996447;28;20067;-77
2022/10/29 05:15:50;;;;;;;11.68;5.03;;;12.10;99.90;;;;;;5014260;28;20018;-77
2022/10/29 05:18:16;;;;;;;14.70;5.90;;;12.10;99.90;;;;;;4996028;28;20026;-76
2022/10/29 05:20:42;;;;;;;9.35;4.15;;;12.20;99.90;;;;;;4996016;28;20392;-76
2022/10/29 05:23:10;;;;;;;10.43;5.93;;;12.10;99.90;;;;;;5013739;28;20544;-77
2022/10/29 05:25:37;;;;;;;8.97;4.73;;;12.10;99.90;;;;;;4996708;28;20120;-77
2022/10/29 05:28:05;;;;;;;8.30;4.93;;;12.10;99.90;;;;;;4996536;28;20021;-77
2022/10/29 05:30:35;;;;;;;10.13;5.00;;;12.10;99.90;;;;;;4996595;28;20022;-76
2022/10/29 05:33:01;;;;;;;11.82;4.93;;;12.10;99.90;;;;;;4996389;28;20295;-76
2022/10/29 05:35:26;;;;;;;14.63;4.88;;;12.10;99.90;;;;;;5013498;28;20029;-75
2022/10/29 05:37:53;;;;;;;11.93;4.90;;;12.20;99.90;;;;;;5013174;28;20022;-77
2022/10/29 05:40:22;;;;;;;9.38;4.57;;;12.50;99.90;;;;;;4995711;28;20096;-77
2022/10/29 05:42:48;;;;;;;10.98;5.03;;;12.20;99.90;;;;;;4995568;28;20481;-77
2022/10/29 05:45:15;;;;;;;15.45;5.30;;;12.20;99.90;;;;;;5013274;28;20022;-77
2022/10/29 05:47:41;;;;;;;11.73;5.43;;;12.20;99.90;;;;;;4995444;28;20084;-76
2022/10/29 05:50:07;;;;;;;9.35;4.45;;;12.20;99.90;;;;;;5013362;28;20465;-77
2022/10/29 05:52:33;;;;;;;10.82;5.50;;;12.30;99.90;;;;;;4995802;28;20083;-77
2022/10/29 05:54:58;;;;;;;9.77;4.63;;;12.20;99.90;;;;;;4996572;28;20025;-77
2022/10/29 05:57:24;;;;;;;12.10;5.50;;;12.30;99.90;;;;;;4996176;28;20026;-77
2022/10/29 05:59:49;;;;;;;17.23;6.10;;;12.30;99.90;;;;;;5013646;28;20037;-77
2022/10/29 06:02:15;;;;;;;11.50;5.35;;;12.40;99.90;;;;;;5013335;28;20030;-77
2022/10/29 06:04:40;;;;;;;10.57;4.70;;;12.30;99.90;;;;;;4995840;28;20022;-77
2022/10/29 06:07:06;;;;;;;14.45;6.32;;;12.40;99.90;;;;;;5013847;28;20093;-77
2022/10/29 06:09:31;;;;;;;16.52;6.25;;;12.40;99.90;;;;;;4995990;28;20080;-77
2022/10/29 06:11:57;;;;;;;13.75;5.53;;;12.40;99.90;;;;;;5013328;28;20026;-77
2022/10/29 06:14:23;;;;;;;15.90;6.07;;;12.40;99.90;;;;;;4995645;28;20030;-77
2022/10/29 06:16:48;;;;;;;17.77;6.35;;;12.50;99.90;;;;;;5017061;28;20014;-76
2022/10/29 06:19:14;;;;;;;12.68;5.82;;;12.50;99.90;;;;;;5017229;28;20079;-77
2022/10/29 06:21:39;;;;;;;15.07;5.70;;;12.50;99.90;;;;;;5017405;28;20049;-77
2022/10/29 06:24:05;;;;;;;13.15;5.22;;;12.50;99.90;;;;;;5016853;28;20033;-77
2022/10/29 06:26:31;;;;;;;11.65;5.78;;;12.60;99.90;;;;;;5000182;28;20030;-77
2022/10/29 06:28:56;;;;;;;10.35;5.68;;;12.70;99.90;;;;;;4999482;28;20042;-77
2022/10/29 06:31:22;;;;;;;18.15;5.18;;;12.60;99.90;;;;;;5017001;28;20109;-77
2022/10/29 06:33:48;;;;;;;16.05;5.82;;;12.60;99.90;;;;;;4999428;28;20018;-77
2022/10/29 06:36:13;;;;;;;13.20;5.75;;;12.60;99.90;;;;;;4999778;28;20025;-77
2022/10/29 06:38:39;;;;;;;13.23;5.25;;;12.60;99.90;;;;;;5017254;28;20408;-77
2022/10/29 06:41:04;;;;;;;13.18;6.07;;;12.60;99.90;;;;;;5017355;28;20484;-77
2022/10/29 06:43:30;;;;;;;11.02;5.63;;;13.20;99.90;;;;;;5016747;28;20109;-77
2022/10/29 06:45:55;;;;;;;13.50;6.43;;;12.60;99.90;;;;;;4999346;28;20576;-77
2022/10/29 06:48:21;;;;;;;16.90;6.65;;;12.70;99.90;;;;;;5017040;28;20034;-77
2022/10/29 06:50:47;;;;;;;14.77;6.30;;;12.70;99.90;;;;;;5016802;28;20022;-77
2022/10/29 06:53:13;;;;;;;14.18;5.78;;;12.80;99.90;;;;;;5016371;28;20021;-77
2022/10/29 06:55:39;;;;;;;16.75;6.45;;;12.90;99.90;;;;;;5016598;28;20104;-77
2022/10/29 06:58:06;;;;;;;14.90;6.15;;;12.80;99.90;;;;;;5017174;28;20034;-77
2022/10/29 07:00:33;;;;;;;17.08;6.93;;;12.90;99.90;;;;;;5016380;28;20112;-77
2022/10/29 07:02:59;;;;;;;18.75;6.70;;;12.80;99.90;;;;;;4998516;28;20029;-77
2022/10/29 07:05:25;;;;;;;18.80;6.25;;;13.00;99.90;;;;;;5016248;28;20030;-77
2022/10/29 07:07:55;;;;;;;16.67;6.25;;;13.00;99.90;;;;;;5016460;28;20022;-77
2022/10/29 07:10:21;;;;;;;19.67;6.80;;;13.10;99.90;;;;;;5016012;28;20037;-77
2022/10/29 07:12:46;;;;;;;13.63;6.10;;;13.10;99.90;;;;;;5015816;28;20026;-77
2022/10/29 07:15:12;;;;;;;14.10;6.30;;;13.10;99.90;;;;;;4998458;28;20362;-77
2022/10/29 07:17:38;;;;;;;14.23;5.65;;;13.20;99.90;;;;;;4998246;28;20026;-77
2022/10/29 07:20:06;;;;;;;19.55;6.57;;;13.20;99.90;;;;;;5016040;28;20511;-77
2022/10/29 07:22:31;;;;;;;13.83;7.17;;;13.20;99.90;;;;;;4997875;28;20060;-77
2022/10/29 07:24:57;;;;;;;15.65;6.82;;;13.30;99.90;;;;;;4998177;28;20112;-78
2022/10/29 07:27:22;;;;;;;21.05;7.10;;;13.40;99.90;;;;;;4997422;28;20029;-77
2022/10/29 07:29:48;;;;;;;19.35;7.82;;;14.40;99.90;;;;;;5015658;28;20053;-77
2022/10/29 07:32:13;;;;;;;19.08;7.25;;;13.60;99.90;;;;;;5016000;28;20053;-77
2022/10/29 07:34:40;;;;;;;19.35;7.45;;;13.70;99.90;;;;;;5015402;28;20540;-77
2022/10/29 07:37:05;;;;;;;20.15;7.47;;;13.70;99.90;;;;;;5015299;28;20079;-77
2022/10/29 07:39:31;;;;;;;23.15;7.88;;;;;;;;;;4997656;28;20021;-77
2022/10/29 07:41:57;;;;;;;19.77;7.50;;;13.90;99.90;;;;;;5015322;28;20030;-77
2022/10/29 07:44:22;;;;;;;21.63;8.23;;;14.10;99.90;;;;;;5015316;28;20033;-78
2022/10/29 07:46:48;;;;;;;16.30;7.93;;;14.20;99.90;;;;;;4998709;28;20026;-77
2022/10/29 07:49:14;;;;;;;17.80;7.95;;;;;;;;;;5015776;28;20049;-77
2022/10/29 07:51:39;;;;;;;21.08;9.45;;;14.40;99.90;;;;;;4997518;28;20109;-77
2022/10/29 07:54:05;;;;;;;23.70;9.25;;;15.50;99.90;;;;;;5015106;28;20416;-77
2022/10/29 07:56:31;;;;;;;17.42;9.23;;;14.80;99.90;;;;;;5015413;28;20084;-77
2022/10/29 07:58:56;;;;;;;28.48;10.88;;;15.00;99.90;;;;;;4997203;28;20022;-77
2022/10/29 08:01:22;;;;;;;20.92;8.73;;;15.20;99.90;;;;;;4997160;28;20569;-77
2022/10/29 08:03:50;;;;;;;24.65;9.10;;;15.10;99.90;;;;;;4997148;28;20030;-77
2022/10/29 08:06:16;;;;;;;24.42;8.20;;;15.20;99.90;;;;;;5014818;28;20026;-77
2022/10/29 08:08:42;;;;;;;19.90;8.40;;;15.30;99.90;;;;;;5015209;28;20076;-77
2022/10/29 08:11:07;;;;;;;22.42;8.48;;;15.40;99.90;;;;;;5014765;28;20097;-77
2022/10/29 08:13:33;;;;;;;17.30;8.20;;;15.50;99.90;;;;;;5014932;28;20034;-77
2022/10/29 08:15:59;;;;;;;21.55;8.55;;;16.50;99.90;;;;;;5014591;28;20533;-77
2022/10/29 08:18:24;;;;;;;22.67;9.88;;;15.70;99.90;;;;;;4997150;28;20057;-77
2022/10/29 08:20:50;;;;;;;20.10;7.97;;;17.30;99.90;;;;;;5014685;28;20026;-77
2022/10/29 08:23:16;;;;;;;14.70;8.23;;;15.90;99.90;;;;;;5014119;28;20546;-77
2022/10/29 08:25:42;;;;;;;23.33;8.30;;;15.90;99.90;;;;;;5014538;28;20021;-77
2022/10/29 08:28:10;;;;;;;17.83;6.63;;;16.10;99.90;;;;;;5014823;28;20101;-77
2022/10/29 08:30:37;;;;;;;18.27;7.22;;;;;;;;;;4996669;28;20117;-77
2022/10/29 08:33:03;;;;;;;11.70;6.32;;;16.30;99.90;;;;;;5014192;28;20540;-77
2022/10/29 08:35:29;;;;;;;20.90;7.35;;;16.10;99.90;;;;;;4996726;28;20022;-77
2022/10/29 08:37:55;;;;;;;21.17;7.97;;;16.40;99.90;;;;;;5013991;28;20034;-77
2022/10/29 08:40:51;;;;;;;19.58;6.45;;;16.50;99.90;;;;;;5013742;28;20033;-77
2022/10/29 08:43:25;;;;;;;18.17;6.07;;;16.70;99.90;;;;;;4970700;28;20388;-77
2022/10/29 08:45:56;;;;;;;15.88;5.85;;;16.80;99.90;;;;;;4996515;28;20532;-77
2022/10/29 08:48:45;;;;;;;22.27;8.25;;;17.00;99.90;;;;;;5013978;28;20029;-77
2022/10/29 08:51:22;;;;;;;16.85;5.72;;;17.10;99.90;;;;;;5013863;28;20029;-77
2022/10/29 08:53:56;;;;;;;22.15;6.55;;;17.30;99.90;;;;;;4996362;28;20116;-77
2022/10/29 08:56:34;;;;;;;15.98;6.85;;;17.20;99.90;;;;;;5013976;28;20025;-77
2022/10/29 08:59:11;;;;;;;13.15;5.53;;;17.30;99.90;;;;;;4996258;28;20017;-77
2022/10/29 09:01:37;;;;;;;14.93;7.40;;;17.30;99.90;;;;;;5013722;28;20159;-77
2022/10/29 09:04:13;;;;;;;16.92;5.82;;;17.40;99.90;;;;;;4996002;28;20101;-77
2022/10/29 09:06:47;;;;;;;14.75;6.05;;;17.30;99.90;;;;;;5014172;28;20018;-76
2022/10/29 09:09:48;;;;;;;14.73;5.75;;;18.00;99.90;;;;;;4996162;28;20030;-76
2022/10/29 09:12:52;;;;;;;14.30;7.13;;;17.30;99.90;;;;;;5000657;28;20426;-77
2022/10/29 09:15:43;;;;;;;12.82;6.05;;;17.20;99.90;;;;;;4995838;28;20492;-77
2022/10/29 09:18:23;;;;;;;13.43;5.97;;;17.20;99.90;;;;;;5013590;28;20030;-77
2022/10/29 09:21:17;;;;;;;17.05;6.13;;;17.20;99.90;;;;;;5013602;28;20022;-77
2022/10/29 09:24:36;;;;;;;20.52;6.30;;;17.30;99.90;;;;;;5013323;28;20117;-77
2022/10/29 09:27:30;;;;;;;16.23;6.47;;;17.30;99.90;;;;;;4915074;29;20039;-76
2022/10/29 09:30:17;;;;;;;17.02;6.28;;;17.40;99.90;;;;;;4990196;28;20489;-77
2022/10/29 09:32:57;;;;;;;10.60;5.13;;;17.40;99.90;;;;;;4995731;28;20026;-76
2022/10/29 09:35:56;;;;;;;14.95;6.75;;;17.40;99.90;;;;;;5013425;28;20030;-77
2022/10/29 09:38:24;;;;;;;13.27;5.45;;;17.40;99.90;;;;;;4991049;28;20030;-77
2022/10/29 09:40:50;;;;;;;21.20;6.15;;;17.40;99.90;;;;;;4995733;28;20555;-77
2022/10/29 09:43:33;;;;;;;22.02;6.72;;;17.50;99.90;;;;;;4995057;28;20022;-77
2022/10/29 09:46:14;;;;;;;15.55;6.15;;;17.50;99.90;;;;;;4995757;28;20029;-77
2022/10/29 09:49:04;;;;;;;19.25;5.90;;;17.50;99.90;;;;;;5013811;28;20469;-77
2022/10/29 09:51:57;;;;;;;11.10;5.65;;;17.50;99.90;;;;;;5016329;28;20081;-77
2022/10/29 09:54:25;;;;;;;16.65;6.15;;;17.50;99.90;;;;;;5017188;28;20030;-77
2022/10/29 09:56:51;;;;;;;25.70;7.53;;;17.60;99.90;;;;;;5017098;28;20528;-77
2022/10/29 09:59:27;;;;;;;12.63;6.00;;;18.40;99.90;;;;;;4999576;28;20121;-77
2022/10/29 10:01:53;;;;;;;15.73;5.80;;;17.50;99.90;;;;;;5017537;28;20060;-76
2022/10/29 10:04:29;;;;;;;17.80;6.80;;;17.60;99.90;;;;;;4999182;28;20434;-77
2022/10/29 10:07:10;;;;;;;11.25;6.32;;;17.70;99.90;;;;;;5017586;28;20022;-77
2022/10/29 10:09:58;;;;;;;18.05;5.90;;;17.70;99.90;;;;;;5016914;28;20389;-77
2022/10/29 10:12:28;;;;;;;18.70;7.20;;;17.90;99.90;;;;;;5016885;28;20181;-76
2022/10/29 10:15:33;;;;;;;19.25;6.65;;;17.90;99.90;;;;;;4999275;28;20057;-77
2022/10/29 10:18:00;;;;;;;16.45;6.22;;;18.10;99.90;;;;;;4985654;28;20037;-77
2022/10/29 10:20:39;;;;;;;12.40;5.47;;;18.40;99.90;;;;;;4999033;28;20029;-77
2022/10/29 10:23:52;;;;;;;17.73;7.28;;;18.50;99.90;;;;;;5016519;28;20036;-77
2022/10/29 10:26:27;;;;;;;11.98;5.00;;;18.60;99.90;;;;;;4918170;29;20032;-77
2022/10/29 10:29:22;;;;;;;14.13;6.45;;;18.60;99.90;;;;;;5010556;28;20034;-77
2022/10/29 10:31:50;;;;;;;13.52;5.22;;;18.80;99.90;;;;;;4996340;28;20503;-77
2022/10/29 10:34:44;;;;;;;16.20;5.38;;;18.80;99.90;;;;;;5016334;28;20029;-77
2022/10/29 10:37:10;;;;;;;10.57;5.05;;;19.00;99.90;;;;;;4995666;28;20042;-77
2022/10/29 10:39:42;;;;;;;24.20;5.50;;;19.20;99.90;;;;;;5016932;28;20030;-76
2022/10/29 10:42:21;;;;;;;14.45;5.55;;;19.30;99.90;;;;;;4998774;28;20030;-76
2022/10/29 10:44:54;;;;;;;10.73;4.57;;;19.20;99.90;;;;;;5016240;28;20030;-77
2022/10/29 10:47:23;;;;;;;13.57;5.50;;;19.20;99.90;;;;;;4998656;28;20022;-77
2022/10/29 10:49:49;;;;;;;17.88;6.03;;;19.20;99.90;;;;;;5016719;28;20054;-76
2022/10/29 10:52:19;;;;;;;17.35;5.32;;;19.60;99.90;;;;;;4998500;28;20054;-77
2022/10/29 10:55:08;;;;;;;15.00;4.55;;;19.50;99.90;;;;;;5016554;28;20084;-77
2022/10/29 10:57:47;;;;;;;14.45;5.50;;;19.80;99.90;;;;;;4998522;28;20022;-76
2022/10/29 11:00:17;;;;;;;;;;;20.10;99.90;;;;;;5016504;28;20022;-77
2022/10/29 11:03:07;;;;;;;12.77;4.25;;;20.10;99.90;;;;;;5014635;28;20303;-76
2022/10/29 11:05:56;;;;;;;12.57;4.57;;;20.20;99.90;;;;;;5015881;28;20034;-76
2022/10/29 11:08:31;;;;;;;12.48;4.20;;;20.30;99.90;;;;;;4998224;28;20022;-77
2022/10/29 11:11:05;;;;;;;12.10;3.53;;;20.40;99.90;;;;;;5015769;28;20109;-76
2022/10/29 11:13:33;;;;;;;10.73;4.00;;;20.50;99.90;;;;;;4998309;28;20038;-76
2022/10/29 11:16:27;;;;;;;11.25;3.88;;;20.50;99.90;;;;;;5015567;28;20422;-77
2022/10/29 11:19:04;;;;;;;9.07;4.22;;;20.50;99.90;;;;;;4998072;28;20103;-77
2022/10/29 11:22:01;;;;;;;18.45;4.68;;;20.50;99.90;;;;;;4997992;28;20087;-76
2022/10/29 11:24:43;;;;;;;11.85;4.65;;;20.50;99.90;;;;;;4969326;28;20513;-76
2022/10/29 11:27:28;;;;;;;15.50;4.53;;;20.40;99.90;;;;;;4998003;28;20057;-77
2022/10/29 11:30:02;;;;;;;11.70;3.97;;;20.40;99.90;;;;;;5015537;28;20084;-76
2022/10/29 11:32:49;;;;;;;12.82;5.00;;;20.20;99.90;;;;;;4997739;28;20037;-77
2022/10/29 11:35:38;;;;;;;10.43;4.55;;;20.20;99.90;;;;;;5015879;28;20080;-76
2022/10/29 11:38:15;;;;;;;14.88;4.43;;;20.10;99.90;;;;;;5015697;28;20034;-76
2022/10/29 11:41:20;;;;;;;12.60;4.22;;;20.00;99.90;;;;;;5015148;28;20109;-77
2022/10/29 11:43:46;;;;;;;10.73;4.65;;;20.00;99.90;;;;;;4916719;29;20494;-77
2022/10/29 11:46:36;;;;;;;11.43;4.97;;;20.00;99.90;;;;;;4977942;28;20481;-77
2022/10/29 11:49:29;;;;;;;13.30;4.97;;;20.10;99.90;;;;;;4997450;28;20417;-77
2022/10/29 11:51:57;;;;;;;10.85;5.13;;;20.20;99.90;;;;;;5015608;28;20169;-77
2022/10/29 11:54:31;;;;;;;12.93;4.32;;;20.30;99.90;;;;;;5014851;28;20030;-76
2022/10/29 11:57:02;;;;;;;11.43;4.50;;;20.40;99.90;;;;;;5015122;28;20393;-77
2022/10/29 11:59:37;;;;;;;20.48;5.30;;;20.50;99.90;;;;;;4997310;28;20485;-77
2022/10/29 12:02:20;;;;;;;9.57;4.38;;;20.60;99.90;;;;;;4997210;28;20125;-77
2022/10/29 12:04:59;;;;;;;13.07;4.38;;;20.80;99.90;;;;;;5014801;28;20030;-76
2022/10/29 12:07:30;;;;;;;12.63;4.18;;;20.90;99.90;;;;;;4997183;28;20503;-77
2022/10/29 12:10:18;;;;;;;16.27;5.10;;;20.90;99.90;;;;;;4997020;28;20127;-76
2022/10/29 12:13:01;;;;;;;10.52;4.05;;;21.20;99.90;;;;;;5014747;28;20164;-77
2022/10/29 12:15:43;;;;;;;16.13;4.75;;;21.30;99.90;;;;;;5014650;28;20113;-76
2022/10/29 12:18:26;;;;;;;16.27;4.47;;;21.50;99.90;;;;;;5015075;28;20025;-76
2022/10/29 12:21:15;;;;;;;15.48;5.00;;;21.60;99.90;;;;;;4996854;28;20374;-77
2022/10/29 12:24:15;;;;;;;14.25;4.35;;;21.80;99.90;;;;;;5014312;28;20065;-77
2022/10/29 12:26:54;;;;;;;13.43;4.32;;;22.00;99.90;;;;;;5014940;28;20358;-77
2022/10/29 12:29:42;;;;;;;10.40;3.50;;;22.20;99.90;;;;;;5014498;28;20028;-77
2022/10/29 12:32:13;;;;;;;12.43;3.83;;;22.50;99.90;;;;;;4997098;28;20431;-77
2022/10/29 12:34:46;;;;;;;14.23;3.90;;;22.80;99.90;;;;;;5014240;28;20104;-77
2022/10/29 12:37:48;;;;;;;15.45;3.45;;;23.00;99.90;;;;;;5014335;28;20030;-76
2022/10/29 12:40:19;;;;;;;14.80;4.28;;;23.30;99.90;;;;;;4960414;28;20393;-77
2022/10/29 12:42:47;;;;;;;10.05;3.33;;;23.40;99.90;;;;;;5013935;28;20504;-76
2022/10/29 12:45:24;;;;;;;12.57;3.83;;;23.30;99.90;;;;;;4996521;28;20025;-77
2022/10/29 12:47:53;;;;;;;7.53;3.83;;;23.00;99.90;;;;;;5014072;28;20489;-77
2022/10/29 12:50:32;;;;;;;;;;;22.70;99.90;;;;;;4996759;28;20519;-76
2022/10/29 12:53:31;;;;;;;10.73;3.88;;;22.60;99.90;;;;;;5014002;28;19912;-77
2022/10/29 12:55:57;;;;;;;14.55;3.95;;;22.50;99.90;;;;;;5014444;28;20022;-76
2022/10/29 12:58:44;;;;;;;11.35;3.20;;;22.50;99.90;;;;;;4996286;28;20021;-76
2022/10/29 13:01:25;;;;;;;10.60;3.97;;;22.50;99.90;;;;;;4996221;28;20022;-76
2022/10/29 13:03:57;;;;;;;10.80;3.72;;;22.40;99.90;;;;;;4996067;28;20026;-77
2022/10/29 13:06:43;;;;;;;12.60;3.35;;;22.30;99.90;;;;;;5013733;28;20026;-76